Time;durP1;ratioP1;P1;durP2;ratioP2;P2;SDS_P1;SDS_P2;PMS_P1;PMS_P2;Temp;Humidity;BMP_temperature;BMP_pressure;BME280_temperature;BME280_humidity;BME280_pressure;Samples;Min_cycle;Max_cycle;Signal;HPM_P1;HPM_P2
2021/09/21 00:00:27;;;;;;;8.73;4.75;;;10.90;93.40;;;;;;4949820;28;20469;-68
2021/09/21 00:02:53;;;;;;;7.68;4.13;;;10.80;93.40;;;;;;4944712;28;20032;-67
2021/09/21 00:05:18;;;;;;;7.60;4.85;;;10.80;93.10;;;;;;4955346;28;20063;-67
2021/09/21 00:07:46;;;;;;;7.43;4.78;;;10.80;93.50;;;;;;4953053;28;20023;-68
2021/09/21 00:10:12;;;;;;;7.50;4.65;;;10.80;93.40;;;;;;4945402;28;20114;-67
2021/09/21 00:12:38;;;;;;;8.88;4.93;;;10.80;93.20;;;;;;4950953;28;20039;-67
2021/09/21 00:15:06;;;;;;;7.25;4.35;;;10.80;92.80;;;;;;4950129;28;20034;-67
2021/09/21 00:17:32;;;;;;;6.63;4.55;;;10.80;92.60;;;;;;4947421;28;20493;-67
2021/09/21 00:19:58;;;;;;;6.05;4.25;;;10.80;92.50;;;;;;4950178;28;20110;-67
2021/09/21 00:22:24;;;;;;;6.97;5.10;;;10.80;92.60;;;;;;4963400;28;20397;-67
2021/09/21 00:24:49;;;;;;;7.13;4.50;;;10.80;92.50;;;;;;4945391;28;20047;-67
2021/09/21 00:27:15;;;;;;;4.18;2.75;;;10.70;92.10;;;;;;4952708;28;20038;-67
2021/09/21 00:29:42;;;;;;;5.28;3.60;;;10.60;91.70;;;;;;4950410;28;20051;-67
2021/09/21 00:32:14;;;;;;;5.72;3.63;;;10.50;91.90;;;;;;4947679;28;20040;-67
2021/09/21 00:34:42;;;;;;;6.30;3.85;;;10.50;92.10;;;;;;4958799;28;20095;-68
2021/09/21 00:37:10;;;;;;;7.80;4.40;;;10.50;92.10;;;;;;4951968;28;20047;-67
2021/09/21 00:39:36;;;;;;;8.65;5.70;;;10.60;92.30;;;;;;4945904;28;20106;-67
2021/09/21 00:42:02;;;;;;;5.70;4.30;;;10.50;92.40;;;;;;4948083;28;20034;-67
2021/09/21 00:44:28;;;;;;;8.43;4.63;;;10.60;92.40;;;;;;4948682;28;20061;-68
2021/09/21 00:46:54;;;;;;;6.35;4.20;;;10.60;92.50;;;;;;4948622;28;20035;-67
2021/09/21 00:49:19;;;;;;;6.45;4.32;;;10.50;92.50;;;;;;4945467;28;20109;-67
2021/09/21 00:51:45;;;;;;;7.30;4.68;;;10.50;92.60;;;;;;4950905;28;20038;-67
2021/09/21 00:54:11;;;;;;;7.13;4.35;;;10.50;92.80;;;;;;4948406;28;20038;-67
2021/09/21 00:56:37;;;;;;;6.75;3.63;;;10.50;92.40;;;;;;4945164;28;20034;-67
2021/09/21 00:59:03;;;;;;;5.88;2.97;;;10.40;91.50;;;;;;4946987;28;20023;-67
2021/09/21 01:01:28;;;;;;;3.50;2.63;;;10.40;91.00;;;;;;4946660;28;20035;-66
2021/09/21 01:03:54;;;;;;;2.90;2.30;;;10.30;91.10;;;;;;4947210;28;20031;-66
2021/09/21 01:06:20;;;;;;;4.85;3.10;;;10.30;91.50;;;;;;4946431;28;20174;-67
2021/09/21 01:08:45;;;;;;;4.95;3.03;;;10.40;91.70;;;;;;4948092;28;20416;-67
2021/09/21 01:11:13;;;;;;;5.45;4.03;;;10.30;91.90;;;;;;4963573;28;20038;-67
2021/09/21 01:13:38;;;;;;;5.53;3.63;;;10.40;92.20;;;;;;4951737;28;20039;-67
2021/09/21 01:16:05;;;;;;;3.88;3.10;;;10.40;92.40;;;;;;4945613;28;20035;-67
2021/09/21 01:18:32;;;;;;;4.55;3.00;;;10.30;92.40;;;;;;4946899;28;20035;-68
2021/09/21 01:21:06;;;;;;;5.07;3.10;;;10.30;92.50;;;;;;4946828;28;20416;-68
2021/09/21 01:23:44;;;;;;;5.22;3.33;;;10.20;92.80;;;;;;4945652;28;20054;-67
2021/09/21 01:26:10;;;;;;;5.28;3.38;;;10.30;92.70;;;;;;4947242;28;20027;-68
2021/09/21 01:28:35;;;;;;;5.53;3.40;;;10.30;92.70;;;;;;4944678;28;20046;-67
2021/09/21 01:31:01;;;;;;;6.97;3.80;;;10.40;92.80;;;;;;4949212;28;20063;-67
2021/09/21 01:33:27;;;;;;;4.72;3.35;;;10.40;92.80;;;;;;4946203;28;20046;-67
2021/09/21 01:35:52;;;;;;;4.90;3.22;;;10.30;92.80;;;;;;4946832;28;20039;-67
2021/09/21 01:38:18;;;;;;;6.03;3.30;;;10.40;92.80;;;;;;4949918;28;20732;-68
2021/09/21 01:40:43;;;;;;;5.82;3.35;;;10.40;92.70;;;;;;4950489;28;20022;-67
2021/09/21 01:43:09;;;;;;;6.53;3.70;;;10.40;92.80;;;;;;4948080;28;20041;-67
2021/09/21 01:45:35;;;;;;;5.57;3.65;;;10.40;93.00;;;;;;4963465;28;20039;-66
2021/09/21 01:48:00;;;;;;;6.85;3.78;;;10.40;92.90;;;;;;4944664;28;20046;-67
2021/09/21 01:50:33;;;;;;;5.15;3.72;;;10.50;92.80;;;;;;4945849;28;20064;-67
2021/09/21 01:53:07;;;;;;;5.70;3.20;;;10.50;92.90;;;;;;4947325;28;20033;-67
2021/09/21 02:00:43;;;;;;;6.13;3.38;;;10.40;93.50;;;;;;4946682;28;20031;-67
2021/09/21 02:03:09;;;;;;;5.32;3.70;;;10.30;93.80;;;;;;4946905;28;20038;-67
2021/09/21 02:05:34;;;;;;;6.50;4.38;;;10.30;93.80;;;;;;4946011;28;20501;-67
2021/09/21 02:08:00;;;;;;;6.40;3.83;;;10.30;93.70;;;;;;4944070;28;20500;-67
2021/09/21 02:10:26;;;;;;;6.32;4.45;;;10.30;93.70;;;;;;4948159;28;20146;-67
2021/09/21 02:12:51;;;;;;;6.00;4.22;;;10.40;93.80;;;;;;4962612;28;20468;-67
2021/09/21 02:15:20;;;;;;;7.35;4.25;;;10.40;93.90;;;;;;4950736;28;20035;-67
2021/09/21 02:17:45;;;;;;;6.45;4.28;;;10.40;93.80;;;;;;4954040;28;20030;-67
2021/09/21 02:20:11;;;;;;;5.95;4.15;;;10.40;93.90;;;;;;4951252;28;20039;-67
2021/09/21 02:22:37;;;;;;;8.10;5.10;;;10.30;94.30;;;;;;4947357;28;20023;-67
2021/09/21 02:25:03;;;;;;;8.27;4.32;;;10.40;94.20;;;;;;4951610;28;20063;-68
2021/09/21 02:27:29;;;;;;;7.13;4.55;;;10.40;94.00;;;;;;4951005;28;20043;-68
2021/09/21 02:29:54;;;;;;;7.78;4.50;;;10.50;94.00;;;;;;4953474;28;20063;-68
2021/09/21 02:32:20;;;;;;;7.70;5.03;;;10.50;94.00;;;;;;4951072;28;20489;-68
2021/09/21 02:34:46;;;;;;;7.28;4.20;;;10.50;94.20;;;;;;4949647;28;20026;-68
2021/09/21 02:37:13;;;;;;;8.48;4.30;;;10.50;94.00;;;;;;4951383;28;20105;-68
2021/09/21 02:39:39;;;;;;;6.80;4.45;;;10.50;93.90;;;;;;4951265;28;20031;-68
2021/09/21 02:42:05;;;;;;;6.78;4.20;;;10.50;93.80;;;;;;4947303;28;20031;-68
2021/09/21 02:44:30;;;;;;;8.00;4.90;;;10.50;94.20;;;;;;4950478;28;20159;-66
2021/09/21 02:46:56;;;;;;;5.40;4.03;;;10.50;94.10;;;;;;4950368;28;20046;-67
2021/09/21 02:49:22;;;;;;;7.53;4.38;;;10.50;94.20;;;;;;4950600;28;20054;-67
2021/09/21 02:51:50;;;;;;;8.05;4.28;;;10.50;94.10;;;;;;4952376;28;20114;-67
2021/09/21 02:54:16;;;;;;;8.48;4.40;;;10.50;94.10;;;;;;4949706;28;20043;-67
2021/09/21 02:56:41;;;;;;;8.43;4.78;;;10.50;94.00;;;;;;4950284;28;20097;-67
2021/09/21 02:59:07;;;;;;;7.55;4.38;;;10.60;94.20;;;;;;4962161;28;20024;-67
2021/09/21 03:01:33;;;;;;;9.02;4.28;;;10.60;93.80;;;;;;4948141;28;20040;-67
2021/09/21 03:04:03;;;;;;;8.23;4.20;;;10.60;93.80;;;;;;4951900;28;20115;-67
2021/09/21 03:06:32;;;;;;;9.13;4.78;;;10.60;93.80;;;;;;4947538;28;20028;-67
2021/09/21 03:11:57;;;;;;;6.70;4.80;;;10.60;94.30;;;;;;4927251;28;20039;-67
2021/09/21 03:17:10;;;;;;;8.90;4.93;;;10.70;93.80;;;;;;4948125;28;20091;-67
2021/09/21 03:19:35;;;;;;;8.32;4.43;;;10.70;93.90;;;;;;4961523;28;20453;-66
2021/09/21 03:22:01;;;;;;;7.60;4.15;;;10.70;93.90;;;;;;4949853;28;20066;-67
2021/09/21 03:24:27;;;;;;;7.25;4.68;;;10.70;93.90;;;;;;4962085;28;20061;-68
2021/09/21 03:26:52;;;;;;;6.40;4.30;;;10.70;94.10;;;;;;4950955;28;20515;-67
2021/09/21 03:29:18;;;;;;;10.40;4.93;;;10.70;94.00;;;;;;4951904;28;20034;-67
2021/09/21 03:31:45;;;;;;;7.13;4.30;;;10.70;94.20;;;;;;4968705;28;20101;-67
2021/09/21 03:34:10;;;;;;;5.38;4.05;;;10.70;94.40;;;;;;4948390;28;20042;-67
2021/09/21 03:36:36;;;;;;;8.40;4.90;;;10.60;94.50;;;;;;4947061;28;20035;-67
2021/09/21 03:39:02;;;;;;;6.85;4.13;;;10.60;94.70;;;;;;4950371;28;20026;-67
2021/09/21 03:41:28;;;;;;;6.32;4.43;;;10.60;94.60;;;;;;4946088;28;20105;-67
2021/09/21 03:43:53;;;;;;;7.97;4.80;;;10.60;94.40;;;;;;4944733;28;20041;-67
2021/09/21 03:46:19;;;;;;;7.18;4.22;;;10.60;94.30;;;;;;4962080;28;20384;-67
2021/09/21 03:48:44;;;;;;;7.70;4.53;;;10.60;94.30;;;;;;4947211;28;20031;-68
2021/09/21 03:51:10;;;;;;;6.05;3.90;;;10.70;94.30;;;;;;4949005;28;20535;-67
2021/09/21 03:53:36;;;;;;;6.50;4.30;;;10.70;94.30;;;;;;4947625;28;20035;-67
2021/09/21 03:56:02;;;;;;;7.18;4.55;;;10.70;94.50;;;;;;4946448;28;20590;-67
2021/09/21 03:58:27;;;;;;;7.05;4.72;;;10.60;94.50;;;;;;4949424;28;20030;-67
2021/09/21 04:00:53;;;;;;;8.52;4.85;;;10.70;94.40;;;;;;4941939;28;20562;-67
2021/09/21 04:03:19;;;;;;;7.50;4.38;;;10.70;94.40;;;;;;4950467;28;20042;-67
2021/09/21 04:05:44;;;;;;;6.88;4.30;;;10.70;94.20;;;;;;4950472;28;20054;-67
2021/09/21 04:08:10;;;;;;;6.65;4.20;;;10.70;94.20;;;;;;4947796;28;20035;-67
2021/09/21 04:10:35;;;;;;;8.82;4.30;;;10.70;94.10;;;;;;4949453;28;20043;-67
2021/09/21 04:13:01;;;;;;;8.48;4.25;;;10.70;94.00;;;;;;4947179;28;20050;-67
2021/09/21 04:15:26;;;;;;;7.50;4.22;;;10.70;94.00;;;;;;4950070;28;20031;-67
2021/09/21 04:17:52;;;;;;;8.48;4.45;;;10.70;94.60;;;;;;4950565;28;20681;-67
2021/09/21 04:20:18;;;;;;;7.22;4.18;;;10.80;94.30;;;;;;4944773;28;20043;-67
2021/09/21 04:22:44;;;;;;;6.63;4.72;;;10.70;94.10;;;;;;4950866;28;20043;-68
2021/09/21 04:25:11;;;;;;;8.07;4.60;;;10.80;94.20;;;;;;4944345;28;20070;-67
2021/09/21 04:27:37;;;;;;;9.23;4.15;;;10.80;94.10;;;;;;4948319;28;20507;-67
2021/09/21 04:30:04;;;;;;;7.40;4.22;;;10.80;94.00;;;;;;4963703;28;20035;-67
2021/09/21 04:32:30;;;;;;;8.43;4.65;;;10.80;94.10;;;;;;4950479;28;20467;-67
2021/09/21 04:34:56;;;;;;;7.38;4.25;;;10.80;94.10;;;;;;4948377;28;20077;-67
2021/09/21 04:37:21;;;;;;;8.65;4.95;;;10.80;94.10;;;;;;4951406;28;20033;-67
2021/09/21 04:39:47;;;;;;;7.88;4.60;;;10.90;94.00;;;;;;4950414;28;20490;-67
2021/09/21 04:42:13;;;;;;;7.30;4.15;;;10.90;94.00;;;;;;4943097;28;20023;-67
2021/09/21 04:44:39;;;;;;;7.85;4.90;;;10.90;93.90;;;;;;4947520;28;20363;-68
2021/09/21 04:47:05;;;;;;;10.02;4.50;;;10.90;94.20;;;;;;4947023;28;20106;-67
2021/09/21 04:49:31;;;;;;;9.05;5.00;;;11.00;94.10;;;;;;4948677;28;20086;-67
2021/09/21 04:51:57;;;;;;;9.65;4.95;;;10.90;94.10;;;;;;4949948;28;20023;-67
2021/09/21 04:54:23;;;;;;;7.95;4.55;;;10.90;93.90;;;;;;4949409;28;20062;-67
2021/09/21 04:56:49;;;;;;;7.10;4.63;;;10.90;93.90;;;;;;4948958;28;20081;-66
2021/09/21 04:59:14;;;;;;;6.30;4.20;;;10.90;93.90;;;;;;4945486;28;20377;-67
2021/09/21 05:01:40;;;;;;;6.65;4.20;;;10.90;94.10;;;;;;4944185;28;20097;-67
2021/09/21 05:04:05;;;;;;;7.07;4.25;;;10.90;94.10;;;;;;4947192;28;20159;-67
2021/09/21 05:06:31;;;;;;;6.03;4.43;;;11.00;94.00;;;;;;4947305;28;20151;-67
2021/09/21 05:08:57;;;;;;;7.72;4.63;;;11.00;93.90;;;;;;4945658;28;20046;-67
2021/09/21 05:11:22;;;;;;;6.38;4.53;;;11.00;94.30;;;;;;4948286;28;20397;-68
2021/09/21 05:13:48;;;;;;;9.82;4.60;;;11.00;94.20;;;;;;4950076;28;20027;-66
2021/09/21 05:16:14;;;;;;;8.73;4.50;;;11.00;94.20;;;;;;4945948;28;20540;-67
2021/09/21 05:18:39;;;;;;;6.68;4.25;;;11.00;94.00;;;;;;4949854;28;20027;-67
2021/09/21 05:21:05;;;;;;;8.30;4.25;;;11.00;94.00;;;;;;4949556;28;20028;-67
2021/09/21 05:23:31;;;;;;;7.28;4.43;;;11.00;93.90;;;;;;4964136;28;20527;-68
2021/09/21 05:25:56;;;;;;;8.70;4.75;;;11.00;94.10;;;;;;4950393;28;20047;-67
2021/09/21 05:28:22;;;;;;;7.00;4.18;;;11.00;94.30;;;;;;4945370;28;20041;-67
2021/09/21 05:30:48;;;;;;;6.82;4.63;;;11.00;94.20;;;;;;4940631;28;20043;-67
2021/09/21 05:33:14;;;;;;;6.18;4.00;;;11.00;94.40;;;;;;4942452;28;20031;-67
2021/09/21 05:35:39;;;;;;;6.40;3.92;;;10.90;94.60;;;;;;4942551;28;20036;-67
2021/09/21 05:38:05;;;;;;;5.90;4.03;;;11.00;94.70;;;;;;4950744;28;20107;-67
2021/09/21 05:40:30;;;;;;;8.98;4.03;;;11.00;94.90;;;;;;4942542;28;20031;-67
2021/09/21 05:42:56;;;;;;;8.70;4.45;;;10.90;94.90;;;;;;4948316;28;20154;-67
2021/09/21 05:45:22;;;;;;;7.70;4.65;;;11.00;94.80;;;;;;4945844;28;20852;-67
2021/09/21 05:47:48;;;;;;;7.68;4.40;;;11.00;94.80;;;;;;4946354;28;20122;-67
2021/09/21 05:50:15;;;;;;;7.22;4.25;;;10.90;94.70;;;;;;4945728;28;20035;-67
2021/09/21 05:52:41;;;;;;;8.00;4.15;;;11.00;95.10;;;;;;4945837;28;20031;-67
2021/09/21 05:55:08;;;;;;;7.05;4.68;;;11.00;94.60;;;;;;4943262;28;20030;-67
2021/09/21 05:57:33;;;;;;;8.40;4.70;;;11.00;94.60;;;;;;4946312;28;20126;-67
2021/09/21 05:59:59;;;;;;;7.72;5.30;;;11.00;94.60;;;;;;4958314;28;20027;-68
2021/09/21 06:02:25;;;;;;;11.13;5.18;;;11.00;94.60;;;;;;4947100;28;20103;-68
2021/09/21 06:04:51;;;;;;;8.35;5.47;;;11.00;94.80;;;;;;4948059;28;20027;-68
2021/09/21 06:07:18;;;;;;;9.95;5.82;;;11.00;94.90;;;;;;4948700;28;20480;-68
2021/09/21 06:09:43;;;;;;;9.98;5.63;;;11.00;94.90;;;;;;4946820;28;20027;-66
2021/09/21 06:12:09;;;;;;;11.88;6.70;;;11.10;94.90;;;;;;4945186;28;20055;-68
2021/09/21 06:14:35;;;;;;;11.50;7.32;;;11.10;94.90;;;;;;4948213;28;20420;-67
2021/09/21 06:17:00;;;;;;;9.55;6.15;;;11.00;95.00;;;;;;4948570;28;20031;-68
2021/09/21 06:19:26;;;;;;;10.00;6.35;;;11.10;95.00;;;;;;4937245;28;20514;-68
2021/09/21 06:21:52;;;;;;;11.57;6.43;;;11.10;95.00;;;;;;4940730;28;20036;-68
2021/09/21 06:24:17;;;;;;;10.38;6.63;;;11.10;95.00;;;;;;4944508;28;20058;-68
2021/09/21 06:26:43;;;;;;;14.10;7.78;;;11.10;95.20;;;;;;4948132;28;20094;-68
2021/09/21 06:29:09;;;;;;;13.85;7.82;;;11.10;95.00;;;;;;4942952;28;20026;-68
2021/09/21 06:31:35;;;;;;;12.30;7.05;;;11.00;95.00;;;;;;4948285;28;20039;-68
2021/09/21 06:34:00;;;;;;;11.57;6.93;;;11.10;95.00;;;;;;4947267;28;20028;-68
2021/09/21 06:36:26;;;;;;;14.45;7.97;;;11.00;95.10;;;;;;4948370;28;20038;-68
2021/09/21 06:38:51;;;;;;;12.30;7.35;;;11.00;95.10;;;;;;4946368;28;20035;-68
2021/09/21 06:41:17;;;;;;;11.52;6.82;;;11.00;95.00;;;;;;4942751;28;20114;-68
2021/09/21 06:43:43;;;;;;;12.77;7.90;;;11.00;94.80;;;;;;4948474;28;20102;-68
2021/09/21 06:46:08;;;;;;;14.50;8.07;;;11.00;94.90;;;;;;4946795;28;20054;-68
2021/09/21 06:48:39;;;;;;;14.73;8.25;;;11.00;95.00;;;;;;4947649;28;20392;-68
2021/09/21 06:51:05;;;;;;;16.25;8.50;;;11.00;94.90;;;;;;4948604;28;20033;-69
2021/09/21 06:53:31;;;;;;;14.23;8.60;;;11.00;94.90;;;;;;4948953;28;20118;-68
2021/09/21 06:55:57;;;;;;;13.52;7.50;;;11.00;94.90;;;;;;4949396;28;20113;-67
2021/09/21 06:58:22;;;;;;;15.32;8.15;;;11.00;95.30;;;;;;4947678;28;20038;-67
2021/09/21 07:00:48;;;;;;;13.15;8.32;;;11.00;95.30;;;;;;4951121;28;20388;-68
2021/09/21 07:03:14;;;;;;;13.18;8.13;;;11.00;95.40;;;;;;4957383;28;20050;-67
2021/09/21 07:05:40;;;;;;;11.90;7.95;;;11.10;95.30;;;;;;4948216;28;20061;-68
2021/09/21 07:08:05;;;;;;;13.10;8.23;;;11.10;95.60;;;;;;4950839;28;20564;-68
2021/09/21 07:10:31;;;;;;;15.73;7.60;;;11.10;95.80;;;;;;4951433;28;20031;-67
2021/09/21 07:12:57;;;;;;;14.18;8.13;;;11.20;95.90;;;;;;4949581;28;20038;-67
2021/09/21 07:15:23;;;;;;;14.77;8.75;;;11.20;95.70;;;;;;4952426;28;20035;-67
2021/09/21 07:17:54;;;;;;;12.13;8.38;;;11.30;95.60;;;;;;4950797;28;20027;-67
2021/09/21 07:20:21;;;;;;;14.73;9.15;;;11.30;95.90;;;;;;4949416;28;20031;-68
2021/09/21 07:22:47;;;;;;;13.27;8.15;;;11.40;95.80;;;;;;4964925;28;20042;-67
2021/09/21 07:25:12;;;;;;;13.30;8.10;;;11.40;95.60;;;;;;4949569;28;21494;-67
2021/09/21 07:27:38;;;;;;;13.82;8.55;;;11.50;95.80;;;;;;4951314;28;20078;-67
2021/09/21 07:30:05;;;;;;;15.40;8.82;;;11.60;95.90;;;;;;4963244;28;20038;-67
2021/09/21 07:32:31;;;;;;;14.88;8.55;;;11.60;95.70;;;;;;4950309;28;20049;-67
2021/09/21 07:34:56;;;;;;;13.32;8.63;;;11.70;95.70;;;;;;4952694;28;20157;-66
2021/09/21 07:37:22;;;;;;;16.65;8.05;;;11.70;95.50;;;;;;4949901;28;20099;-67
2021/09/21 07:39:48;;;;;;;15.82;9.05;;;11.70;95.50;;;;;;4947838;28;20037;-67
2021/09/21 07:42:17;;;;;;;13.38;8.48;;;11.80;95.20;;;;;;4965484;28;20023;-67
2021/09/21 07:44:43;;;;;;;16.27;9.73;;;11.80;95.10;;;;;;4949493;29;20023;-67
2021/09/21 07:47:08;;;;;;;17.38;9.77;;;11.80;95.10;;;;;;4946625;28;20094;-67
2021/09/21 07:49:34;;;;;;;16.65;10.20;;;11.80;94.60;;;;;;4954159;28;20031;-67
2021/09/21 07:52:00;;;;;;;14.23;9.10;;;11.80;95.10;;;;;;4951240;28;20031;-68
2021/09/21 07:54:25;;;;;;;19.50;9.75;;;11.80;94.80;;;;;;4962393;28;20400;-67
2021/09/21 07:56:51;;;;;;;17.40;10.43;;;11.80;94.70;;;;;;4962514;28;20024;-67
2021/09/21 07:59:17;;;;;;;15.43;10.18;;;11.80;94.70;;;;;;4950414;28;20020;-67
2021/09/21 08:01:42;;;;;;;18.52;9.95;;;11.80;94.30;;;;;;4950466;28;20040;-66
2021/09/21 08:04:08;;;;;;;16.23;10.20;;;11.80;93.80;;;;;;4950947;28;20035;-67
2021/09/21 08:06:34;;;;;;;16.00;9.57;;;11.80;94.10;;;;;;4948912;28;20039;-67
2021/09/21 08:09:00;;;;;;;17.23;9.65;;;11.90;94.40;;;;;;4962965;28;20027;-67
2021/09/21 08:11:27;;;;;;;19.02;10.48;;;12.00;94.20;;;;;;4942963;28;20063;-67
2021/09/21 08:13:53;;;;;;;18.43;10.50;;;12.00;93.60;;;;;;4948435;28;20100;-67
2021/09/21 08:16:19;;;;;;;16.17;9.25;;;12.10;93.60;;;;;;4954735;28;20111;-68
2021/09/21 08:18:44;;;;;;;15.38;9.88;;;12.10;92.50;;;;;;4947828;28;20708;-67
2021/09/21 08:21:10;;;;;;;19.73;10.98;;;12.10;93.10;;;;;;4964603;28;20818;-67
2021/09/21 08:23:36;;;;;;;19.23;10.85;;;12.20;93.90;;;;;;4950707;28;20075;-67
2021/09/21 08:26:01;;;;;;;19.38;10.75;;;12.20;92.30;;;;;;4947597;28;20041;-67
2021/09/21 08:28:27;;;;;;;19.05;11.32;;;12.20;91.80;;;;;;4950529;28;20546;-67
2021/09/21 08:30:53;;;;;;;15.73;9.77;;;12.20;91.80;;;;;;4949902;28;20035;-67
2021/09/21 08:33:19;;;;;;;20.80;10.85;;;12.20;91.00;;;;;;4948020;28;20044;-68
2021/09/21 08:35:45;;;;;;;16.10;10.30;;;12.20;91.60;;;;;;4948152;28;20035;-68
2021/09/21 08:38:11;;;;;;;18.00;11.20;;;12.30;92.00;;;;;;4946436;28;20102;-68
2021/09/21 08:40:37;;;;;;;17.63;9.75;;;12.40;92.60;;;;;;4947909;28;20031;-69
2021/09/21 08:43:02;;;;;;;16.50;10.60;;;12.40;92.10;;;;;;4951027;28;20051;-68
2021/09/21 08:45:28;;;;;;;21.95;10.13;;;12.50;91.50;;;;;;4945024;28;20050;-68
2021/09/21 08:47:54;;;;;;;18.02;11.38;;;12.60;91.40;;;;;;4947022;28;20483;-68
2021/09/21 08:50:21;;;;;;;18.13;11.00;;;12.60;91.20;;;;;;4948304;28;20027;-68
2021/09/21 08:52:47;;;;;;;17.67;10.38;;;12.70;91.30;;;;;;4948100;28;20042;-68
2021/09/21 08:55:15;;;;;;;15.85;9.52;;;12.70;90.60;;;;;;4945446;28;20035;-67
2021/09/21 08:57:42;;;;;;;15.98;10.35;;;12.70;89.10;;;;;;4944216;28;20485;-68
2021/09/21 09:00:19;;;;;;;16.88;9.20;;;12.70;89.60;;;;;;4948351;28;20032;-67
2021/09/21 09:02:44;;;;;;;17.77;9.98;;;12.80;89.80;;;;;;4962093;28;20045;-67
2021/09/21 09:05:11;;;;;;;17.27;10.95;;;12.80;88.00;;;;;;4946291;28;20054;-67
2021/09/21 09:07:54;;;;;;;17.75;10.13;;;12.90;88.40;;;;;;4951949;28;20020;-68
2021/09/21 09:10:22;;;;;;;14.52;9.00;;;12.90;86.90;;;;;;4959743;28;20450;-67
2021/09/21 09:12:49;;;;;;;15.32;9.70;;;12.90;87.90;;;;;;4944842;28;20058;-68
2021/09/21 09:15:18;;;;;;;17.00;9.63;;;13.00;88.50;;;;;;4943948;28;20089;-68
2021/09/21 09:18:01;;;;;;;16.90;9.48;;;13.10;86.50;;;;;;4948307;28;20034;-68
2021/09/21 09:20:39;;;;;;;16.95;10.05;;;13.20;84.00;;;;;;4946732;28;20023;-68
2021/09/21 09:23:08;;;;;;;15.00;9.27;;;13.20;87.00;;;;;;4949848;28;20401;-68
2021/09/21 09:25:49;;;;;;;15.27;9.75;;;13.20;85.80;;;;;;4946474;28;20393;-68
2021/09/21 09:28:20;;;;;;;14.35;9.32;;;13.20;84.90;;;;;;4943744;28;20062;-69
2021/09/21 09:30:46;;;;;;;14.63;9.18;;;13.20;83.90;;;;;;4946939;28;20046;-68
2021/09/21 09:33:12;;;;;;;13.82;8.13;;;13.20;80.90;;;;;;4950131;28;20019;-68
2021/09/21 09:35:40;;;;;;;15.73;8.52;;;13.20;79.50;;;;;;4954667;28;20061;-68
2021/09/21 09:38:10;;;;;;;15.43;9.77;;;13.30;84.80;;;;;;4947653;28;20027;-68
2021/09/21 09:40:47;;;;;;;15.75;9.15;;;13.40;85.10;;;;;;4948311;28;20055;-69
2021/09/21 09:43:14;;;;;;;16.05;8.77;;;13.30;84.90;;;;;;4946523;28;20046;-68
2021/09/21 09:45:42;;;;;;;12.98;8.30;;;13.40;84.80;;;;;;4947714;28;20042;-68
2021/09/21 09:48:13;;;;;;;12.73;8.75;;;13.40;82.80;;;;;;4948073;28;20042;-68
2021/09/21 09:50:42;;;;;;;14.93;9.15;;;13.30;80.20;;;;;;4948003;28;20241;-68
2021/09/21 09:53:26;;;;;;;13.68;7.82;;;13.30;79.40;;;;;;4948643;28;20135;-68
2021/09/21 09:55:57;;;;;;;14.23;8.35;;;13.30;80.60;;;;;;4947146;28;20030;-68
2021/09/21 09:58:24;;;;;;;13.27;8.13;;;13.40;82.30;;;;;;4947116;28;20378;-68
2021/09/21 10:00:52;;;;;;;15.20;8.57;;;13.50;81.20;;;;;;4949929;28;20070;-68
2021/09/21 10:03:18;;;;;;;15.02;8.93;;;13.60;81.90;;;;;;4946203;28;20118;-67
2021/09/21 10:05:44;;;;;;;12.82;8.30;;;13.60;82.50;;;;;;4948505;28;20039;-66
2021/09/21 10:08:10;;;;;;;13.35;7.95;;;13.60;81.20;;;;;;4948972;28;20039;-67
2021/09/21 10:10:40;;;;;;;12.35;8.07;;;13.60;81.40;;;;;;4948769;28;20033;-67
2021/09/21 10:13:12;;;;;;;14.00;8.23;;;13.70;81.20;;;;;;4949461;28;20030;-67
2021/09/21 10:15:41;;;;;;;12.10;7.32;;;13.80;82.20;;;;;;4949663;28;20031;-67
2021/09/21 10:18:19;;;;;;;12.32;8.40;;;13.90;77.30;;;;;;4947394;28;20019;-68
2021/09/21 10:20:54;;;;;;;14.18;7.88;;;13.90;77.70;;;;;;4965272;28;20082;-67
2021/09/21 10:23:20;;;;;;;11.90;7.63;;;14.00;80.40;;;;;;4962664;28;20062;-68
2021/09/21 10:25:45;;;;;;;12.75;6.93;;;14.00;78.60;;;;;;4949680;28;20497;-68
2021/09/21 10:28:15;;;;;;;18.35;8.70;;;14.20;80.00;;;;;;4948551;28;20114;-67
2021/09/21 10:30:56;;;;;;;11.70;7.43;;;14.20;77.60;;;;;;4948876;28;20049;-67
2021/09/21 10:33:23;;;;;;;10.98;7.22;;;14.10;73.90;;;;;;4948722;28;20034;-67
2021/09/21 10:35:49;;;;;;;12.88;7.28;;;14.00;75.50;;;;;;4948939;28;20023;-68
2021/09/21 10:38:18;;;;;;;11.02;7.43;;;14.10;76.70;;;;;;4946662;29;20383;-67
2021/09/21 10:40:47;;;;;;;9.68;6.93;;;14.20;77.40;;;;;;4950331;28;20046;-67
2021/09/21 10:43:22;;;;;;;9.27;6.43;;;14.30;77.40;;;;;;4953373;28;20030;-67
2021/09/21 10:45:49;;;;;;;8.93;6.50;;;14.40;75.70;;;;;;4950628;28;20031;-67
2021/09/21 10:48:20;;;;;;;11.07;7.53;;;14.40;75.00;;;;;;4949458;28;20065;-67
2021/09/21 10:50:56;;;;;;;12.07;7.32;;;14.40;77.30;;;;;;4953926;28;20330;-67
2021/09/21 10:53:22;;;;;;;10.07;6.68;;;14.30;73.70;;;;;;4947037;28;20043;-67
2021/09/21 10:56:02;;;;;;;12.40;7.20;;;14.40;75.50;;;;;;4953936;28;20039;-67
2021/09/21 10:58:28;;;;;;;11.85;7.63;;;14.50;75.70;;;;;;4966561;28;20034;-68
2021/09/21 11:00:54;;;;;;;9.45;6.57;;;14.50;75.60;;;;;;4952157;28;20023;-68
2021/09/21 11:03:22;;;;;;;11.90;6.78;;;14.50;76.00;;;;;;4950736;28;20095;-68
2021/09/21 11:05:47;;;;;;;10.35;7.53;;;14.40;76.50;;;;;;4967593;28;20031;-66
2021/09/21 11:08:14;;;;;;;11.05;7.00;;;14.40;74.50;;;;;;4952784;28;20031;-67
2021/09/21 11:10:47;;;;;;;10.75;6.57;;;14.40;76.20;;;;;;4951757;28;20035;-67
2021/09/21 11:13:18;;;;;;;12.55;7.22;;;14.40;75.10;;;;;;4949748;29;20035;-68
2021/09/21 11:15:45;;;;;;;11.02;6.97;;;14.40;76.70;;;;;;4949633;28;20043;-67
2021/09/21 11:18:16;;;;;;;10.25;6.97;;;14.50;74.10;;;;;;4950204;28;20525;-68
2021/09/21 11:20:51;;;;;;;11.07;7.35;;;14.50;74.70;;;;;;4950798;28;20066;-67
2021/09/21 11:23:20;;;;;;;10.70;6.82;;;14.50;76.10;;;;;;4949790;28;20528;-68
2021/09/21 11:25:48;;;;;;;10.60;6.90;;;14.50;76.00;;;;;;4948921;28;20063;-67
2021/09/21 11:28:15;;;;;;;9.18;6.63;;;14.60;76.80;;;;;;4951634;28;20038;-67
2021/09/21 11:30:42;;;;;;;11.88;6.65;;;14.60;76.50;;;;;;4948084;28;20035;-67
2021/09/21 11:33:16;;;;;;;9.40;6.70;;;14.60;75.10;;;;;;4958849;28;20551;-68
2021/09/21 11:35:46;;;;;;;11.10;6.85;;;14.60;75.40;;;;;;4949596;28;20042;-68
2021/09/21 11:38:12;;;;;;;9.85;6.20;;;14.60;74.20;;;;;;4951738;28;20031;-68
2021/09/21 11:40:40;;;;;;;10.35;6.57;;;14.60;74.50;;;;;;4951080;28;20038;-68
2021/09/21 11:43:05;;;;;;;11.93;7.10;;;14.60;74.80;;;;;;4951075;28;20102;-68
2021/09/21 11:45:31;;;;;;;10.45;7.90;;;14.60;73.00;;;;;;4949366;28;20110;-68
2021/09/21 11:47:57;;;;;;;9.70;6.68;;;14.50;72.30;;;;;;4962485;28;20062;-68
2021/09/21 11:50:28;;;;;;;8.52;6.60;;;14.70;73.90;;;;;;4950861;28;20042;-68
2021/09/21 11:52:59;;;;;;;14.10;8.25;;;14.70;73.70;;;;;;4948496;28;20451;-68
2021/09/21 11:55:32;;;;;;;11.40;6.95;;;14.70;72.50;;;;;;4950227;28;20089;-67
2021/09/21 11:57:59;;;;;;;9.18;5.70;;;14.80;73.80;;;;;;4964291;28;20023;-67
2021/09/21 12:00:25;;;;;;;11.75;6.25;;;14.80;71.50;;;;;;4962120;28;20412;-68
2021/09/21 12:03:09;;;;;;;9.18;6.57;;;14.90;73.30;;;;;;4950522;28;20106;-68
2021/09/21 12:05:39;;;;;;;9.23;5.60;;;14.90;74.00;;;;;;4948822;28;20963;-68
2021/09/21 12:08:07;;;;;;;9.18;6.03;;;14.90;73.20;;;;;;4947243;28;20046;-68
2021/09/21 12:10:35;;;;;;;8.02;5.88;;;15.00;73.30;;;;;;4946606;28;20035;-68
2021/09/21 12:13:16;;;;;;;7.60;5.53;;;14.90;71.50;;;;;;4949797;28;20456;-68
2021/09/21 12:15:45;;;;;;;7.93;5.25;;;15.00;73.60;;;;;;4961133;28;20703;-68
2021/09/21 12:18:12;;;;;;;7.57;5.95;;;14.90;72.30;;;;;;4949564;28;20027;-68
2021/09/21 12:20:40;;;;;;;8.10;4.97;;;14.90;73.00;;;;;;4949812;28;20125;-68
2021/09/21 12:23:08;;;;;;;9.75;5.53;;;14.90;73.50;;;;;;4950311;28;21287;-68
2021/09/21 12:25:35;;;;;;;8.30;5.38;;;14.90;72.30;;;;;;4950838;28;20826;-68
2021/09/21 12:28:05;;;;;;;7.75;5.63;;;15.00;72.00;;;;;;4949053;28;20484;-68
2021/09/21 12:30:34;;;;;;;8.07;5.10;;;14.90;72.00;;;;;;4951309;28;20473;-68
2021/09/21 12:33:06;;;;;;;6.78;5.60;;;15.00;73.00;;;;;;4951653;28;20027;-68
2021/09/21 12:35:34;;;;;;;7.55;5.38;;;15.00;71.80;;;;;;4948898;28;20039;-68
2021/09/21 12:38:07;;;;;;;7.72;5.72;;;14.90;72.00;;;;;;4947825;28;20532;-68
2021/09/21 12:40:34;;;;;;;10.45;6.53;;;14.90;71.10;;;;;;4965144;28;20035;-68
2021/09/21 12:43:04;;;;;;;10.85;6.70;;;14.80;71.30;;;;;;4950139;28;20055;-68
2021/09/21 12:45:31;;;;;;;8.85;6.05;;;14.70;72.40;;;;;;4952020;28;20031;-68
2021/09/21 12:47:57;;;;;;;7.38;5.85;;;14.70;73.80;;;;;;4961295;28;20039;-68
2021/09/21 12:50:22;;;;;;;12.13;6.85;;;14.60;73.70;;;;;;4949326;28;20026;-68